Time;durP1;ratioP1;P1;durP2;ratioP2;P2;SDS_P1;SDS_P2;PMS_P1;PMS_P2;Temp;Humidity;BMP_temperature;BMP_pressure;BME280_temperature;BME280_humidity;BME280_pressure;Samples;Min_cycle;Max_cycle;Signal;HPM_P1;HPM_P2
2022/11/17 00:01:21;;;;;;;5.45;2.92;;;;;;;8.81;95.19;98789.53;5029219;28;20197;-80
2022/11/17 00:03:48;;;;;;;6.45;3.42;;;;;;;8.83;95.38;98792.88;5029750;28;20095;-79
2022/11/17 00:06:14;;;;;;;5.95;3.15;;;;;;;8.83;95.32;98777.31;5029064;28;20059;-79
2022/11/17 00:08:39;;;;;;;4.03;2.65;;;;;;;8.82;95.88;98760.09;5029148;28;20033;-79
2022/11/17 00:11:05;;;;;;;6.22;3.00;;;;;;;8.84;95.79;98747.88;5030163;28;20488;-80
2022/11/17 00:16:16;;;;;;;5.13;3.00;;;;;;;8.84;95.71;98742.69;5029116;28;20036;-79
2022/11/17 00:21:27;;;;;;;6.43;2.97;;;;;;;8.88;95.49;98726.03;5034526;28;20099;-80
2022/11/17 00:23:53;;;;;;;5.88;3.15;;;;;;;8.88;95.73;98717.44;5030962;28;20029;-79
2022/11/17 00:26:20;;;;;;;5.30;2.47;;;;;;;8.86;95.85;98721.84;5030192;28;20084;-80
2022/11/17 00:28:45;;;;;;;5.30;2.50;;;;;;;8.85;96.00;98710.66;5032095;28;20033;-79
2022/11/17 00:34:05;;;;;;;5.05;2.50;;;;;;;8.91;96.36;98705.13;5033460;28;20465;-79
2022/11/17 00:36:43;;;;;;;7.07;2.40;;;;;;;8.89;96.10;98695.78;5034011;28;20034;-80
2022/11/17 00:39:10;;;;;;;6.03;2.60;;;;;;;8.87;96.46;98695.88;5031394;28;20037;-79
2022/11/17 00:41:35;;;;;;;4.53;2.13;;;;;;;8.88;96.29;98687.13;5029085;28;20056;-79
2022/11/17 00:44:00;;;;;;;4.78;2.30;;;;;;;8.92;96.37;98678.28;5032837;28;20034;-79
2022/11/17 00:46:26;;;;;;;7.65;2.72;;;;;;;8.94;95.92;98673.84;5031527;28;20108;-79
2022/11/17 00:48:52;;;;;;;3.95;2.20;;;;;;;8.92;96.40;98648.94;5031766;28;20049;-79
2022/11/17 00:51:17;;;;;;;5.22;2.08;;;;;;;8.92;96.12;98657.53;5029901;28;20026;-79
2022/11/17 00:53:43;;;;;;;4.75;2.40;;;;;;;8.91;96.71;98649.84;5024299;28;20033;-79
2022/11/17 00:56:08;;;;;;;4.38;2.28;;;;;;;8.90;97.20;98649.00;5031734;28;20029;-78
2022/11/17 00:58:34;;;;;;;5.72;2.20;;;;;;;8.89;97.11;98636.13;5028855;28;20021;-79
2022/11/17 01:01:00;;;;;;;4.40;2.10;;;;;;;8.91;97.07;98631.69;5036115;28;20032;-79
2022/11/17 01:03:25;;;;;;;3.97;1.98;;;;;;;8.92;97.05;98647.16;5031212;28;20098;-79
2022/11/17 01:05:50;;;;;;;6.03;1.85;;;;;;;8.91;96.82;98629.94;5029482;28;20061;-80
2022/11/17 01:08:15;;;;;;;4.10;2.00;;;;;;;8.94;96.87;98628.94;5032669;28;20036;-80
2022/11/17 01:10:40;;;;;;;4.40;2.10;;;;;;;8.92;97.19;98629.00;5035820;28;20464;-79
2022/11/17 01:13:06;;;;;;;5.82;2.08;;;;;;;8.90;97.30;98633.44;5029862;28;20064;-79
2022/11/17 01:15:33;;;;;;;5.28;2.17;;;;;;;8.91;97.28;98619.56;5014687;28;20025;-80
2022/11/17 01:17:58;;;;;;;4.70;2.22;;;;;;;8.91;97.48;98626.50;5029848;28;20036;-80
2022/11/17 01:20:23;;;;;;;6.15;2.40;;;;;;;8.92;97.68;98630.78;5031531;28;20413;-80
2022/11/17 01:22:49;;;;;;;5.13;2.33;;;;;;;8.90;98.15;98643.81;5033045;28;20033;-80
2022/11/17 01:25:14;;;;;;;3.85;1.80;;;;;;;8.90;98.07;98637.81;5034258;28;20032;-79
2022/11/17 01:27:39;;;;;;;3.60;1.80;;;;;;;8.90;98.24;98637.81;5026335;28;20018;-79
2022/11/17 01:30:05;;;;;;;3.38;1.90;;;;;;;8.91;98.11;98632.53;5032215;28;20033;-80
2022/11/17 01:32:30;;;;;;;3.75;1.92;;;;;;;8.92;98.17;98623.81;5031769;28;20117;-79
2022/11/17 01:34:56;;;;;;;2.30;1.60;;;;;;;8.94;98.35;98616.81;5025171;28;20524;-79
2022/11/17 01:37:21;;;;;;;4.28;1.90;;;;;;;8.94;98.14;98603.00;5031177;28;20040;-79
2022/11/17 01:39:47;;;;;;;3.10;1.70;;;;;;;8.95;98.35;98591.72;5031347;28;20038;-79
2022/11/17 01:42:18;;;;;;;3.90;1.80;;;;;;;8.98;98.15;98582.94;5029835;28;20025;-79
2022/11/17 01:44:59;;;;;;;3.08;1.50;;;;;;;8.96;98.23;98591.63;5027428;28;20037;-79
2022/11/17 01:47:51;;;;;;;3.40;1.80;;;;;;;8.99;98.11;98590.59;5028345;28;20474;-79
2022/11/17 01:50:36;;;;;;;3.33;1.50;;;;;;;9.00;98.03;98583.69;5030476;28;20065;-79
2022/11/17 01:53:07;;;;;;;2.67;1.23;;;;;;;9.00;98.05;98575.91;5026479;28;20744;-79
2022/11/17 01:55:50;;;;;;;2.77;1.40;;;;;;;9.00;98.06;98573.31;5025705;28;20492;-79
2022/11/17 01:58:26;;;;;;;2.55;1.40;;;;;;;9.01;98.32;98577.56;5025400;28;20029;-79
2022/11/17 02:00:54;;;;;;;4.53;1.48;;;;;;;9.00;98.24;98558.56;5031984;28;20055;-79
2022/11/17 02:03:19;;;;;;;2.80;1.40;;;;;;;9.02;98.06;98559.31;5028436;28;20487;-79
2022/11/17 02:06:02;;;;;;;1.20;1.00;;;;;;;9.03;98.15;98558.41;5031522;28;20037;-79
2022/11/17 02:08:30;;;;;;;2.67;1.27;;;;;;;9.05;97.96;98560.94;5029498;28;20108;-79
2022/11/17 02:10:56;;;;;;;2.47;1.20;;;;;;;9.05;98.21;98564.34;5035554;28;20037;-79
2022/11/17 02:13:23;;;;;;;2.60;1.10;;;;;;;9.06;98.33;98554.78;5030600;28;20052;-79
2022/11/17 02:15:48;;;;;;;3.08;1.17;;;;;;;9.06;98.42;98555.63;5030750;28;20109;-79
2022/11/17 02:18:16;;;;;;;1.35;1.00;;;;;;;9.08;98.28;98552.94;5029867;28;20120;-79
2022/11/17 02:21:20;;;;;;;2.35;1.10;;;;;;;9.08;98.41;98551.19;5032207;28;20476;-79
2022/11/17 02:24:08;;;;;;;2.22;0.88;;;;;;;9.11;98.29;98542.41;5029658;28;20025;-79
2022/11/17 02:27:02;;;;;;;2.60;1.00;;;;;;;9.10;97.95;98539.00;5030419;28;20017;-79
2022/11/17 02:29:47;;;;;;;1.75;0.70;;;;;;;9.11;98.12;98542.41;5033471;28;20033;-79
2022/11/17 02:32:22;;;;;;;2.03;0.90;;;;;;;9.13;98.14;98531.97;5024978;28;20410;-79
2022/11/17 02:35:06;;;;;;;1.50;0.70;;;;;;;9.13;98.31;98535.38;5031635;28;20124;-79
2022/11/17 02:37:56;;;;;;;1.42;0.80;;;;;;;9.14;97.95;98521.47;5030427;28;20026;-79
2022/11/17 02:40:26;;;;;;;0.90;0.60;;;;;;;9.13;97.77;98519.81;5026993;28;20032;-79
2022/11/17 02:45:56;;;;;;;1.73;0.80;;;;;;;9.15;97.75;98523.16;5032397;28;20120;-79
2022/11/17 02:48:33;;;;;;;1.08;0.70;;;;;;;9.16;97.80;98524.81;5026196;28;20029;-80
2022/11/17 02:51:00;;;;;;;3.13;0.70;;;;;;;9.18;97.56;98524.72;5029662;28;20036;-79
2022/11/17 02:53:27;;;;;;;2.72;0.73;;;;;;;9.16;97.77;98519.63;5029096;28;20138;-79
2022/11/17 02:55:53;;;;;;;1.38;0.77;;;;;;;9.16;97.89;98514.44;5026144;28;20040;-79
2022/11/17 02:58:19;;;;;;;0.77;0.70;;;;;;;9.17;97.75;98510.94;5029033;28;20037;-79
2022/11/17 03:01:07;;;;;;;1.10;0.70;;;;;;;9.16;97.76;98506.66;5027385;28;20025;-79
2022/11/17 03:04:01;;;;;;;1.20;0.60;;;;;;;9.16;97.93;98498.03;5026838;28;20025;-79
2022/11/17 03:06:44;;;;;;;1.50;0.70;;;;;;;9.15;97.63;98479.06;5028740;28;20037;-79
2022/11/17 03:09:17;;;;;;;1.10;0.70;;;;;;;9.13;97.54;98467.94;5030155;28;20017;-79
2022/11/17 03:11:49;;;;;;;1.48;0.60;;;;;;;9.12;97.40;98448.09;5025443;28;20469;-79
2022/11/17 03:14:34;;;;;;;1.27;0.68;;;;;;;9.11;97.26;98446.44;5028826;28;20467;-79
2022/11/17 03:17:26;;;;;;;1.55;0.50;;;;;;;9.11;97.12;98451.63;5029572;28;20040;-79
2022/11/17 03:20:02;;;;;;;;;;;;;;;9.12;96.59;98440.31;5026640;28;20033;-79
2022/11/17 03:22:43;;;;;;;1.23;0.40;;;;;;;9.10;96.62;98444.75;5030254;28;19912;-79
2022/11/17 03:25:16;;;;;;;1.35;0.50;;;;;;;9.09;96.90;98435.31;5028761;28;20053;-79
2022/11/17 03:27:45;;;;;;;1.45;0.50;;;;;;;9.07;97.07;98419.00;5034754;28;20020;-79
2022/11/17 03:30:11;;;;;;;1.23;0.50;;;;;;;9.07;97.13;98424.19;5033441;28;20108;-79
2022/11/17 03:32:40;;;;;;;2.20;0.50;;;;;;;9.05;97.14;98423.47;5033673;28;20108;-79
2022/11/17 03:35:15;;;;;;;1.35;0.50;;;;;;;9.03;97.36;98431.31;5030394;28;20052;-79
2022/11/17 03:37:48;;;;;;;0.45;0.40;;;;;;;9.03;97.39;98427.91;5034428;28;20033;-79
2022/11/17 03:40:18;;;;;;;0.90;0.35;;;;;;;9.00;97.50;98425.47;5033030;28;20038;-79
2022/11/17 03:42:51;;;;;;;1.17;0.40;;;;;;;8.97;97.41;98426.47;5031767;28;20029;-79
2022/11/17 03:45:24;;;;;;;1.05;0.40;;;;;;;8.95;97.27;98424.00;5028797;28;20108;-79
2022/11/17 03:47:58;;;;;;;0.82;0.40;;;;;;;8.93;97.42;98418.06;5032750;28;20018;-79
2022/11/17 03:50:34;;;;;;;0.80;0.40;;;;;;;8.92;97.42;98418.16;5030112;28;20021;-79
2022/11/17 03:53:02;;;;;;;0.40;0.40;;;;;;;8.89;97.50;98416.56;5033430;28;20025;-79
2022/11/17 03:55:36;;;;;;;0.82;0.40;;;;;;;8.89;97.59;98407.94;5031263;28;20338;-79
2022/11/17 03:58:10;;;;;;;0.40;0.40;;;;;;;8.87;97.16;98410.66;5032450;28;20479;-79
2022/11/17 04:00:38;;;;;;;0.60;0.50;;;;;;;8.86;97.20;98403.78;5030774;28;20489;-79
2022/11/17 04:03:03;;;;;;;1.17;0.60;;;;;;;8.85;97.36;98402.13;5032117;28;20033;-79
2022/11/17 04:05:28;;;;;;;0.60;0.50;;;;;;;8.85;97.36;98391.75;5030743;28;20032;-79
2022/11/17 04:07:53;;;;;;;0.68;0.50;;;;;;;8.85;97.54;98402.13;5035206;28;20045;-79
2022/11/17 04:10:21;;;;;;;0.70;0.50;;;;;;;8.86;97.77;98406.38;5036265;28;20029;-79
2022/11/17 04:18:16;;;;;;;0.70;0.50;;;;;;;8.99;97.63;98397.88;5032587;28;20075;-79
2022/11/17 04:20:41;;;;;;;0.80;0.60;;;;;;;9.02;97.51;98397.69;5032098;28;20029;-79
2022/11/17 04:23:13;;;;;;;1.25;0.60;;;;;;;9.04;97.46;98388.91;5034425;28;20029;-79
2022/11/17 04:28:38;;;;;;;1.85;0.60;;;;;;;9.07;97.44;98393.91;5033369;28;20538;-79
2022/11/17 04:31:09;;;;;;;0.70;0.40;;;;;;;9.08;97.73;98395.59;5031196;28;20531;-79
2022/11/17 04:33:36;;;;;;;0.50;0.50;;;;;;;9.09;97.29;98389.47;5028334;28;20427;-79
2022/11/17 04:36:02;;;;;;;1.30;0.50;;;;;;;9.10;97.36;98390.28;5034245;28;20025;-79
2022/11/17 04:38:28;;;;;;;0.52;0.50;;;;;;;9.09;97.36;98386.03;5030734;28;20135;-79
2022/11/17 04:43:44;;;;;;;0.40;0.40;;;;;;;9.10;97.67;98385.94;5035328;28;20110;-79
2022/11/17 04:46:09;;;;;;;0.75;0.40;;;;;;;9.11;97.63;98379.00;5032928;28;20296;-79
2022/11/17 04:48:35;;;;;;;1.42;0.52;;;;;;;9.10;97.88;98380.78;5005845;28;20480;-79
2022/11/17 04:51:00;;;;;;;0.68;0.30;;;;;;;9.12;97.75;98378.06;5015438;28;20022;-78
2022/11/17 04:53:25;;;;;;;1.45;0.52;;;;;;;9.12;97.68;98362.50;5031643;28;20464;-79
2022/11/17 04:55:50;;;;;;;1.00;0.43;;;;;;;9.10;97.82;98349.63;5034071;28;20036;-79
2022/11/17 04:58:16;;;;;;;2.35;0.47;;;;;;;9.11;97.96;98360.84;5031936;28;20103;-79
2022/11/17 05:00:41;;;;;;;1.52;0.45;;;;;;;9.10;98.58;98359.16;5032170;28;20049;-79
2022/11/17 05:03:07;;;;;;;1.00;0.40;;;;;;;9.10;98.46;98356.56;5029772;28;20030;-79
2022/11/17 05:05:32;;;;;;;0.80;0.50;;;;;;;9.11;98.80;98355.66;5031475;28;20037;-79
2022/11/17 05:07:57;;;;;;;0.32;0.30;;;;;;;9.13;98.81;98358.16;5030884;28;20067;-79
2022/11/17 05:13:25;;;;;;;0.77;0.52;;;;;;;9.10;98.62;98348.78;5028273;28;20059;-79
2022/11/17 05:18:37;;;;;;;1.33;0.60;;;;;;;9.11;98.79;98347.88;5031296;28;20048;-78
2022/11/17 05:21:04;;;;;;;1.50;0.63;;;;;;;9.11;98.88;98350.47;5032197;28;20048;-79
2022/11/17 05:26:13;;;;;;;2.42;0.47;;;;;;;9.11;99.45;98361.69;5030767;28;20044;-79
2022/11/17 05:28:39;;;;;;;1.98;0.50;;;;;;;9.11;99.65;98340.09;5031655;28;20029;-79
2022/11/17 05:31:04;;;;;;;1.80;0.50;;;;;;;9.13;99.66;98353.81;5030915;28;20029;-79
2022/11/17 05:33:29;;;;;;;4.00;0.73;;;;;;;9.15;99.82;98348.50;5031878;28;20025;-79
2022/11/17 05:35:54;;;;;;;2.13;0.47;;;;;;;9.17;99.76;98354.44;5022294;28;20437;-79
2022/11/17 05:38:20;;;;;;;3.80;0.80;;;;;;;9.19;100.00;98369.00;5029716;28;20025;-78
2022/11/17 05:40:45;;;;;;;3.90;0.70;;;;;;;9.20;100.00;98367.22;5032111;28;20029;-79
2022/11/17 05:43:10;;;;;;;3.13;1.02;;;;;;;9.21;99.95;98382.72;5030448;28;20039;-79
2022/11/17 05:45:35;;;;;;;2.85;0.80;;;;;;;9.23;100.00;98374.84;5011847;28;20040;-79
2022/11/17 05:48:01;;;;;;;2.38;0.70;;;;;;;9.26;100.00;98380.66;5028544;28;20551;-79
2022/11/17 05:50:26;;;;;;;3.28;0.90;;;;;;;9.27;99.58;98376.31;5033079;28;20048;-79
2022/11/17 05:52:51;;;;;;;1.95;0.60;;;;;;;9.31;99.49;98387.34;5026925;28;20037;-79
2022/11/17 05:55:16;;;;;;;2.47;0.65;;;;;;;9.32;99.58;98383.81;5029238;28;20378;-79
2022/11/17 05:57:43;;;;;;;3.20;0.77;;;;;;;9.32;99.65;98379.47;5034978;28;20056;-79
2022/11/17 06:00:09;;;;;;;2.20;0.70;;;;;;;9.35;99.86;98378.47;5038853;28;20031;-79
2022/11/17 06:02:46;;;;;;;2.80;0.50;;;;;;;9.37;100.00;98389.59;5027284;28;20037;-79
2022/11/17 06:05:11;;;;;;;1.52;0.60;;;;;;;9.39;99.73;98392.91;5029484;28;20107;-79
2022/11/17 06:07:37;;;;;;;3.03;0.50;;;;;;;9.38;99.54;98394.66;5016992;28;20108;-80
2022/11/17 06:10:03;;;;;;;1.60;0.50;;;;;;;9.38;99.70;98399.03;5028879;28;20060;-79
2022/11/17 06:12:28;;;;;;;3.05;0.50;;;;;;;9.38;99.78;98399.03;5031650;28;20507;-79
2022/11/17 06:14:53;;;;;;;2.80;0.60;;;;;;;9.40;99.61;98397.16;5028402;28;20037;-79
2022/11/17 06:17:30;;;;;;;3.15;0.55;;;;;;;9.40;99.81;98413.56;5028413;28;20029;-79
2022/11/17 06:20:21;;;;;;;3.08;0.60;;;;;;;9.39;99.62;98405.91;5031060;28;20029;-79
2022/11/17 06:22:48;;;;;;;4.97;0.68;;;;;;;9.39;99.72;98403.31;5025707;28;20045;-79
2022/11/17 06:25:14;;;;;;;2.17;0.57;;;;;;;9.39;99.71;98403.31;5009783;28;20083;-80
2022/11/17 06:27:40;;;;;;;3.63;1.02;;;;;;;9.38;99.80;98410.25;5026281;28;20018;-79
2022/11/17 06:30:06;;;;;;;6.25;0.90;;;;;;;9.38;99.37;98409.41;5022579;28;20025;-79
2022/11/17 06:32:35;;;;;;;4.20;0.75;;;;;;;9.36;99.15;98406.06;5022313;28;20033;-79
2022/11/17 06:35:05;;;;;;;5.22;0.73;;;;;;;9.36;98.70;98417.28;5028534;28;20029;-79
2022/11/17 06:37:30;;;;;;;4.45;0.80;;;;;;;9.35;98.43;98414.78;5029030;28;20088;-79
2022/11/17 06:39:55;;;;;;;4.35;0.63;;;;;;;9.37;97.94;98410.34;5030946;28;20026;-79
2022/11/17 06:43:02;;;;;;;5.68;1.00;;;;;;;9.35;97.45;98422.56;5030298;28;20451;-79
2022/11/17 06:45:06;;;;;;;2.72;0.60;;;;;;;9.35;97.00;98428.56;5029079;28;20456;-79
2022/11/17 06:47:32;;;;;;;2.35;0.40;;;;;;;9.34;96.88;98433.88;5030810;28;20026;-79
2022/11/17 06:49:57;;;;;;;5.25;0.80;;;;;;;9.33;96.77;98429.59;5021131;28;20510;-79
2022/11/17 06:52:23;;;;;;;4.88;0.52;;;;;;;9.33;96.61;98440.00;5026427;28;20029;-79
2022/11/17 06:54:49;;;;;;;3.28;0.65;;;;;;;9.32;96.56;98435.72;5019779;28;20116;-79
2022/11/17 06:57:14;;;;;;;4.85;0.85;;;;;;;9.32;96.56;98451.28;5030306;28;20118;-79
2022/11/17 06:59:39;;;;;;;4.25;0.70;;;;;;;9.31;96.55;98444.44;5028884;28;20036;-79
2022/11/17 07:02:04;;;;;;;3.85;0.60;;;;;;;9.29;96.54;98452.31;5029646;28;20048;-79
2022/11/17 07:04:30;;;;;;;2.85;0.60;;;;;;;9.31;96.59;98460.00;5030487;28;20053;-79
2022/11/17 07:06:55;;;;;;;4.15;0.73;;;;;;;9.30;96.22;98453.13;5028147;28;20591;-79
2022/11/17 07:09:20;;;;;;;6.95;0.70;;;;;;;9.27;96.19;98460.16;5032668;28;20033;-79
2022/11/17 07:11:45;;;;;;;3.50;0.60;;;;;;;9.27;96.26;98465.34;5032367;28;20029;-79
2022/11/17 07:14:11;;;;;;;3.58;0.70;;;;;;;9.24;96.07;98468.13;5026347;28;20052;-78
2022/11/17 07:16:36;;;;;;;3.60;0.73;;;;;;;9.22;96.08;98461.38;5030723;28;20029;-79
2022/11/17 07:19:02;;;;;;;3.33;0.52;;;;;;;9.21;95.86;98468.34;5025457;28;20045;-79
2022/11/17 07:21:27;;;;;;;3.33;0.70;;;;;;;9.19;96.09;98470.19;5021965;28;20460;-79
2022/11/17 07:23:53;;;;;;;3.97;0.93;;;;;;;9.18;95.63;98459.88;5030610;28;20116;-79
2022/11/17 07:26:18;;;;;;;3.67;1.10;;;;;;;9.16;95.80;98469.50;5024976;28;20056;-79
2022/11/17 07:28:43;;;;;;;3.88;0.60;;;;;;;9.12;95.94;98468.84;5029623;28;20029;-79
2022/11/17 07:31:08;;;;;;;4.53;0.82;;;;;;;9.11;95.73;98474.97;5018911;28;20400;-79
2022/11/17 07:33:34;;;;;;;3.97;0.77;;;;;;;9.11;95.90;98469.78;5031333;28;20030;-79
2022/11/17 07:36:05;;;;;;;4.40;0.70;;;;;;;9.08;95.86;98477.72;5032503;28;20037;-79
2022/11/17 07:38:32;;;;;;;2.53;0.50;;;;;;;9.05;95.90;98473.56;5030484;28;20060;-79
2022/11/17 07:40:59;;;;;;;2.40;0.50;;;;;;;9.05;95.90;98488.31;5030911;28;20084;-79
2022/11/17 07:43:24;;;;;;;2.80;0.70;;;;;;;9.02;96.18;98497.06;5031432;28;20075;-79
2022/11/17 07:45:49;;;;;;;3.53;0.63;;;;;;;9.01;96.06;98499.78;5034972;28;20029;-79
2022/11/17 07:48:14;;;;;;;2.42;0.65;;;;;;;8.99;96.15;98502.44;5027741;28;20033;-79
2022/11/17 07:50:40;;;;;;;3.70;0.50;;;;;;;8.95;96.20;98501.78;5034076;28;20029;-79
2022/11/17 07:53:06;;;;;;;2.13;0.57;;;;;;;8.95;95.90;98506.97;5032328;28;20491;-79
2022/11/17 07:55:31;;;;;;;2.58;0.50;;;;;;;8.91;96.03;98510.66;5027160;28;20057;-79
2022/11/17 07:57:58;;;;;;;2.28;0.50;;;;;;;8.90;96.27;98508.97;5024650;28;20037;-79
2022/11/17 08:00:25;;;;;;;2.38;0.50;;;;;;;8.89;96.36;98509.91;5017010;28;20026;-79
2022/11/17 08:02:51;;;;;;;2.65;0.60;;;;;;;8.86;96.51;98520.47;5008280;28;20059;-78
2022/11/17 08:05:17;;;;;;;1.70;0.50;;;;;;;8.88;96.07;98510.00;5031597;28;20088;-79
2022/11/17 08:07:44;;;;;;;2.10;0.50;;;;;;;8.85;96.18;98521.38;5031550;28;20350;-79
2022/11/17 08:10:09;;;;;;;1.02;0.40;;;;;;;8.87;96.46;98523.88;5008059;28;20033;-79
2022/11/17 08:12:34;;;;;;;2.67;0.65;;;;;;;8.86;96.42;98519.63;5029335;28;20045;-79
2022/11/17 08:14:59;;;;;;;2.58;0.40;;;;;;;8.89;96.10;98520.28;5029353;28;20025;-79
2022/11/17 08:17:25;;;;;;;3.20;0.43;;;;;;;8.89;95.61;98528.03;5027970;28;20052;-79
2022/11/17 08:19:50;;;;;;;1.77;0.30;;;;;;;8.90;95.92;98529.72;5028727;28;20034;-79
2022/11/17 08:22:15;;;;;;;1.55;0.40;;;;;;;8.91;95.74;98528.81;5032824;28;20116;-79
2022/11/17 08:24:40;;;;;;;0.90;0.30;;;;;;;8.92;95.51;98537.44;5029255;28;20037;-79
2022/11/17 08:27:06;;;;;;;1.95;0.40;;;;;;;8.93;95.40;98541.69;5032014;28;20047;-79
2022/11/17 08:29:31;;;;;;;1.50;0.40;;;;;;;8.90;95.59;98540.09;5029943;28;20029;-79
2022/11/17 08:31:56;;;;;;;1.77;0.30;;;;;;;8.91;95.35;98546.13;5024131;28;20087;-79
2022/11/17 08:34:22;;;;;;;1.98;0.52;;;;;;;8.89;95.42;98548.78;5032477;28;20032;-79
2022/11/17 08:36:47;;;;;;;2.38;0.43;;;;;;;8.90;95.12;98542.69;5026409;28;20064;-79
2022/11/17 08:39:12;;;;;;;0.77;0.30;;;;;;;8.90;94.94;98545.28;5032625;28;20040;-79
2022/11/17 08:41:37;;;;;;;1.67;0.57;;;;;;;8.90;95.15;98544.47;5027282;28;20029;-79
2022/11/17 08:44:03;;;;;;;1.63;0.30;;;;;;;8.90;94.93;98550.47;5024464;28;20084;-79
2022/11/17 08:46:29;;;;;;;2.15;0.40;;;;;;;8.89;95.08;98559.16;5029903;28;20075;-79
2022/11/17 08:48:54;;;;;;;2.30;0.38;;;;;;;8.84;95.12;98561.19;5024798;28;20033;-79
2022/11/17 08:51:20;;;;;;;1.58;0.30;;;;;;;8.83;95.33;98564.72;5019596;28;20533;-79
2022/11/17 08:53:45;;;;;;;3.92;0.50;;;;;;;8.82;95.30;98563.03;5031110;28;20048;-79
2022/11/17 08:56:11;;;;;;;1.45;0.40;;;;;;;8.80;95.00;98564.88;5029708;28;20033;-79
2022/11/17 08:58:38;;;;;;;1.20;0.40;;;;;;;8.80;95.22;98560.50;5024075;28;20389;-79
2022/11/17 09:01:06;;;;;;;2.78;0.40;;;;;;;8.77;95.11;98562.44;5025458;28;20132;-79
2022/11/17 09:03:31;;;;;;;2.53;0.45;;;;;;;8.76;95.02;98565.97;5027197;28;20029;-79
2022/11/17 09:05:57;;;;;;;1.02;0.30;;;;;;;8.73;95.25;98574.75;5026400;28;20044;-79
2022/11/17 09:08:22;;;;;;;1.17;0.40;;;;;;;8.72;95.12;98572.22;5027877;28;20060;-79
2022/11/17 09:10:50;;;;;;;1.70;0.40;;;;;;;8.72;95.00;98569.63;5028774;28;20500;-79
2022/11/17 09:13:15;;;;;;;2.80;0.30;;;;;;;8.73;95.09;98568.72;5028239;28;20465;-80
2022/11/17 09:15:40;;;;;;;2.25;0.68;;;;;;;8.72;95.19;98577.41;5025125;28;20112;-79
2022/11/17 09:18:06;;;;;;;1.42;0.45;;;;;;;8.71;94.84;98578.34;5026707;28;20029;-78
2022/11/17 09:20:31;;;;;;;2.90;0.55;;;;;;;8.72;95.18;98582.59;5028859;28;20039;-79
2022/11/17 09:23:01;;;;;;;1.25;0.50;;;;;;;8.74;95.03;98578.16;5023449;28;20328;-79
2022/11/17 09:25:27;;;;;;;2.17;0.50;;;;;;;8.76;94.70;98584.09;5009199;28;20123;-79
2022/11/17 09:27:52;;;;;;;2.35;0.60;;;;;;;8.77;94.30;98593.56;5024846;28;20040;-79
2022/11/17 09:30:20;;;;;;;2.35;0.55;;;;;;;8.77;94.62;98590.97;5026452;28;20029;-79
2022/11/17 09:32:49;;;;;;;1.88;0.50;;;;;;;8.77;94.29;98593.56;5010154;28;20033;-79
2022/11/17 09:35:15;;;;;;;2.05;0.60;;;;;;;8.78;93.98;98600.41;5025387;28;21322;-79
2022/11/17 09:37:40;;;;;;;2.00;0.52;;;;;;;8.78;94.28;98603.84;5025821;28;20762;-79
2022/11/17 09:40:09;;;;;;;2.65;0.50;;;;;;;8.80;94.41;98606.34;5028360;28;20033;-79
2022/11/17 09:42:39;;;;;;;1.80;0.45;;;;;;;8.82;94.51;98617.47;5026579;28;20033;-79
2022/11/17 09:45:31;;;;;;;3.50;0.52;;;;;;;8.84;93.78;98613.06;5029472;28;20064;-78
2022/11/17 09:48:03;;;;;;;2.70;0.85;;;;;;;8.86;93.99;98611.22;5026106;28;20061;-79
2022/11/17 09:50:33;;;;;;;1.88;0.43;;;;;;;8.92;93.99;98618.63;5027179;28;20029;-78
2022/11/17 09:53:14;;;;;;;3.55;0.50;;;;;;;8.98;93.98;98614.88;5024233;28;20029;-78
2022/11/17 09:55:42;;;;;;;2.10;0.50;;;;;;;9.04;93.25;98621.50;5024508;28;20466;-78
2022/11/17 09:58:29;;;;;;;2.50;0.50;;;;;;;9.12;93.04;98624.50;5023677;28;20029;-78
2022/11/17 10:00:55;;;;;;;2.95;0.60;;;;;;;9.19;92.25;98625.84;5023812;28;20036;-78
2022/11/17 10:03:34;;;;;;;1.95;0.50;;;;;;;9.29;92.67;98633.09;5024307;28;20025;-79
2022/11/17 10:06:04;;;;;;;3.70;0.50;;;;;;;9.35;92.40;98636.16;5023722;28;20046;-79
2022/11/17 10:08:38;;;;;;;3.33;0.40;;;;;;;9.41;91.58;98642.78;5027724;28;20021;-78
2022/11/17 10:11:30;;;;;;;1.38;0.50;;;;;;;9.48;92.26;98644.09;5024392;28;20029;-80
2022/11/17 10:13:56;;;;;;;1.80;0.45;;;;;;;9.52;91.43;98640.41;5023432;28;20056;-80
2022/11/17 10:16:21;;;;;;;2.47;0.50;;;;;;;9.56;89.86;98641.91;5024242;28;20385;-79
2022/11/17 10:18:46;;;;;;;2.30;0.52;;;;;;;9.60;90.22;98652.97;5024479;28;20140;-79
2022/11/17 10:21:11;;;;;;;1.70;0.50;;;;;;;9.63;90.26;98650.19;5007568;28;20488;-79
2022/11/17 10:23:44;;;;;;;3.97;0.68;;;;;;;9.68;89.96;98647.31;5024211;28;20040;-79
2022/11/17 10:26:13;;;;;;;1.75;0.60;;;;;;;9.71;89.27;98654.94;5022935;28;20033;-79
2022/11/17 10:28:38;;;;;;;1.50;0.57;;;;;;;9.76;88.92;98655.50;5023913;28;20028;-78
2022/11/17 10:31:09;;;;;;;0.95;0.50;;;;;;;9.82;88.99;98652.56;5026696;28;20025;-79
2022/11/17 10:34:01;;;;;;;2.47;0.50;;;;;;;9.91;88.44;98658.13;5024634;28;20034;-79
2022/11/17 10:36:29;;;;;;;3.50;0.75;;;;;;;9.95;87.27;98667.41;5020058;28;20173;-79
2022/11/17 10:38:56;;;;;;;0.90;0.45;;;;;;;9.99;87.46;98663.72;5025313;28;20423;-78
2022/11/17 10:41:26;;;;;;;4.57;0.60;;;;;;;10.03;86.43;98666.03;5023969;28;20496;-79
2022/11/17 10:44:13;;;;;;;3.83;0.50;;;;;;;10.11;87.46;98673.38;5022865;28;20057;-78
2022/11/17 10:46:57;;;;;;;4.90;0.40;;;;;;;10.14;86.63;98668.00;5020652;28;20037;-79
2022/11/17 10:49:25;;;;;;;2.30;0.60;;;;;;;10.18;85.85;98669.50;5025446;28;20523;-80
2022/11/17 10:52:03;;;;;;;2.10;0.40;;;;;;;10.26;85.46;98683.78;5023691;28;20116;-79
2022/11/17 10:54:28;;;;;;;2.65;0.40;;;;;;;10.27;84.02;98675.06;5021980;28;20033;-80
2022/11/17 10:56:58;;;;;;;1.17;0.60;;;;;;;10.29;83.56;98673.22;5024793;28;20041;-79
2022/11/17 10:59:30;;;;;;;2.53;0.40;;;;;;;10.31;84.05;98680.03;5024170;28;20091;-79
2022/11/17 11:01:56;;;;;;;1.55;0.43;;;;;;;10.31;82.91;98673.97;5022939;28;20041;-79
2022/11/17 11:04:35;;;;;;;2.80;0.60;;;;;;;10.30;83.98;98687.91;5022169;28;20034;-79
2022/11/17 11:07:18;;;;;;;1.70;0.40;;;;;;;10.28;83.08;98689.75;5022306;28;20032;-78
2022/11/17 11:09:58;;;;;;;3.25;0.60;;;;;;;10.27;83.97;98688.91;5024595;28;20207;-79
2022/11/17 11:12:43;;;;;;;2.10;0.30;;;;;;;10.25;83.55;98698.56;5020656;28;20077;-80
2022/11/17 11:15:17;;;;;;;2.63;0.57;;;;;;;10.22;82.43;98695.31;5022996;28;20500;-80
2022/11/17 11:17:43;;;;;;;1.27;0.40;;;;;;;10.22;83.67;98695.31;5021638;28;20040;-80
2022/11/17 11:20:13;;;;;;;4.30;0.50;;;;;;;10.18;82.65;98703.28;5021829;28;20034;-79
2022/11/17 11:22:52;;;;;;;4.30;0.60;;;;;;;10.16;83.59;98710.34;5022760;28;20045;-79
2022/11/17 11:25:48;;;;;;;2.00;0.40;;;;;;;10.15;83.57;98711.25;5023268;28;20037;-79
2022/11/17 11:28:25;;;;;;;1.90;0.50;;;;;;;10.13;83.84;98705.31;4984912;28;20061;-78
2022/11/17 11:31:13;;;;;;;2.65;0.50;;;;;;;10.16;84.26;98712.13;5025089;28;20473;-79
2022/11/17 11:33:49;;;;;;;2.38;0.60;;;;;;;10.17;83.84;98716.34;5026288;28;20075;-79
2022/11/17 11:36:38;;;;;;;3.30;0.57;;;;;;;10.18;83.96;98713.69;5026658;28;20040;-79
2022/11/17 11:39:27;;;;;;;2.95;0.50;;;;;;;10.18;83.74;98716.28;5027743;28;20060;-79
2022/11/17 11:42:23;;;;;;;3.17;0.60;;;;;;;10.20;82.65;98717.97;5024708;28;20021;-79
2022/11/17 11:45:26;;;;;;;1.55;0.45;;;;;;;10.23;82.98;98720.38;5024524;28;20029;-78
2022/11/17 11:48:08;;;;;;;1.27;0.47;;;;;;;10.22;82.79;98724.72;5029793;28;20121;-80
2022/11/17 11:50:53;;;;;;;;;;;;;;;10.22;83.00;98732.53;5030366;28;20025;-78
2022/11/17 11:53:49;;;;;;;2.30;0.60;;;;;;;10.22;82.60;98727.31;5003856;28;19913;-78
2022/11/17 11:56:46;;;;;;;2.35;0.60;;;;;;;10.23;82.54;98728.19;5021190;28;20060;-78
2022/11/17 11:59:18;;;;;;;1.73;0.57;;;;;;;10.24;82.50;98729.84;5015807;28;20049;-79
2022/11/17 12:01:54;;;;;;;3.67;0.60;;;;;;;10.24;82.04;98729.84;5029491;28;20489;-78
2022/11/17 12:04:44;;;;;;;1.60;0.40;;;;;;;10.25;82.26;98737.53;5028816;28;20473;-78
2022/11/17 12:07:18;;;;;;;1.20;0.40;;;;;;;10.26;82.19;98743.56;5027754;28;20044;-78
2022/11/17 12:09:54;;;;;;;3.00;0.60;;;;;;;10.28;82.08;98736.53;5026863;28;20357;-78
2022/11/17 12:12:30;;;;;;;3.47;0.65;;;;;;;10.31;81.19;98751.94;5028336;28;20496;-79
2022/11/17 12:15:09;;;;;;;1.67;0.50;;;;;;;10.31;81.15;98746.75;5029570;28;20030;-78
2022/11/17 12:17:35;;;;;;;3.50;0.60;;;;;;;10.31;80.30;98749.34;5027303;28;20500;-78
2022/11/17 12:20:03;;;;;;;2.67;0.60;;;;;;;10.32;80.81;98743.22;5028721;28;20056;-77
2022/11/17 12:22:28;;;;;;;2.22;0.50;;;;;;;10.32;79.65;98753.63;5027303;28;20037;-77
2022/11/17 12:24:59;;;;;;;1.95;0.70;;;;;;;10.32;80.32;98756.22;5027892;28;20121;-78
2022/11/17 12:27:34;;;;;;;2.15;0.70;;;;;;;10.34;80.67;98764.75;5028489;28;20128;-78